sensor_id;sensor_type;location;lat;lon;timestamp;P1;durP1;ratioP1;P2;durP2;ratioP2
51034;SDS011;37062;52.546;13.230;2023-04-08T00:00:04;14.48;;;10.20;;
51034;SDS011;37062;52.546;13.230;2023-04-08T00:02:35;11.82;;;9.05;;
51034;SDS011;37062;52.546;13.230;2023-04-08T00:05:04;14.98;;;9.55;;
51034;SDS011;37062;52.546;13.230;2023-04-08T00:07:35;12.13;;;9.00;;
51034;SDS011;37062;52.546;13.230;2023-04-08T00:10:04;12.95;;;10.18;;
51034;SDS011;37062;52.546;13.230;2023-04-08T00:12:33;13.38;;;10.10;;
51034;SDS011;37062;52.546;13.230;2023-04-08T00:15:01;14.77;;;10.20;;
51034;SDS011;37062;52.546;13.230;2023-04-08T00:17:30;12.20;;;10.02;;
51034;SDS011;37062;52.546;13.230;2023-04-08T00:19:59;17.48;;;11.70;;
51034;SDS011;37062;52.546;13.230;2023-04-08T00:22:27;15.00;;;11.38;;
51034;SDS011;37062;52.546;13.230;2023-04-08T00:24:57;16.08;;;11.35;;
51034;SDS011;37062;52.546;13.230;2023-04-08T00:27:26;17.83;;;12.23;;
51034;SDS011;37062;52.546;13.230;2023-04-08T00:29:54;19.80;;;13.07;;
51034;SDS011;37062;52.546;13.230;2023-04-08T00:32:23;19.85;;;12.82;;
51034;SDS011;37062;52.546;13.230;2023-04-08T00:34:51;21.00;;;13.65;;
51034;SDS011;37062;52.546;13.230;2023-04-08T00:37:19;24.75;;;13.82;;
51034;SDS011;37062;52.546;13.230;2023-04-08T00:39:48;23.52;;;15.05;;
51034;SDS011;37062;52.546;13.230;2023-04-08T00:42:20;20.08;;;14.07;;
51034;SDS011;37062;52.546;13.230;2023-04-08T00:44:48;21.20;;;14.00;;
51034;SDS011;37062;52.546;13.230;2023-04-08T00:47:17;24.42;;;15.05;;
51034;SDS011;37062;52.546;13.230;2023-04-08T00:49:45;21.90;;;14.00;;
51034;SDS011;37062;52.546;13.230;2023-04-08T00:52:14;23.42;;;15.27;;
51034;SDS011;37062;52.546;13.230;2023-04-08T00:54:42;24.15;;;16.20;;
51034;SDS011;37062;52.546;13.230;2023-04-08T00:57:10;22.52;;;15.18;;
51034;SDS011;37062;52.546;13.230;2023-04-08T00:59:40;26.05;;;16.60;;
51034;SDS011;37062;52.546;13.230;2023-04-08T01:02:11;25.95;;;16.15;;
51034;SDS011;37062;52.546;13.230;2023-04-08T01:04:44;25.48;;;15.98;;
51034;SDS011;37062;52.546;13.230;2023-04-08T01:07:19;27.95;;;17.50;;
51034;SDS011;37062;52.546;13.230;2023-04-08T01:09:52;28.35;;;16.30;;
51034;SDS011;37062;52.546;13.230;2023-04-08T01:12:24;29.80;;;17.60;;
51034;SDS011;37062;52.546;13.230;2023-04-08T01:14:58;29.48;;;16.92;;
51034;SDS011;37062;52.546;13.230;2023-04-08T01:17:29;26.50;;;17.08;;
51034;SDS011;37062;52.546;13.230;2023-04-08T01:19:59;27.42;;;16.30;;
51034;SDS011;37062;52.546;13.230;2023-04-08T01:22:33;26.02;;;17.17;;
51034;SDS011;37062;52.546;13.230;2023-04-08T01:25:20;28.77;;;17.38;;
51034;SDS011;37062;52.546;13.230;2023-04-08T01:27:52;29.20;;;18.75;;
51034;SDS011;37062;52.546;13.230;2023-04-08T01:30:23;29.05;;;17.85;;
51034;SDS011;37062;52.546;13.230;2023-04-08T01:32:55;30.25;;;17.85;;
51034;SDS011;37062;52.546;13.230;2023-04-08T01:35:26;29.98;;;17.75;;
51034;SDS011;37062;52.546;13.230;2023-04-08T01:37:56;30.65;;;18.00;;
51034;SDS011;37062;52.546;13.230;2023-04-08T01:40:25;29.33;;;17.92;;
51034;SDS011;37062;52.546;13.230;2023-04-08T01:42:57;27.23;;;16.45;;
51034;SDS011;37062;52.546;13.230;2023-04-08T01:45:29;32.00;;;18.60;;
51034;SDS011;37062;52.546;13.230;2023-04-08T01:47:59;32.72;;;18.77;;
51034;SDS011;37062;52.546;13.230;2023-04-08T01:50:29;30.63;;;18.52;;
51034;SDS011;37062;52.546;13.230;2023-04-08T01:52:58;34.17;;;19.42;;
51034;SDS011;37062;52.546;13.230;2023-04-08T01:55:27;28.40;;;17.65;;
51034;SDS011;37062;52.546;13.230;2023-04-08T01:57:58;27.27;;;18.10;;
51034;SDS011;37062;52.546;13.230;2023-04-08T02:00:28;30.98;;;18.67;;
51034;SDS011;37062;52.546;13.230;2023-04-08T02:02:58;25.00;;;16.30;;
51034;SDS011;37062;52.546;13.230;2023-04-08T02:05:28;31.27;;;17.88;;
51034;SDS011;37062;52.546;13.230;2023-04-08T02:07:56;27.55;;;17.90;;
51034;SDS011;37062;52.546;13.230;2023-04-08T02:10:26;29.60;;;18.45;;
51034;SDS011;37062;52.546;13.230;2023-04-08T02:12:55;31.40;;;18.90;;
51034;SDS011;37062;52.546;13.230;2023-04-08T02:15:25;32.53;;;18.35;;
51034;SDS011;37062;52.546;13.230;2023-04-08T02:17:56;29.00;;;17.50;;
51034;SDS011;37062;52.546;13.230;2023-04-08T02:20:34;30.73;;;16.77;;
51034;SDS011;37062;52.546;13.230;2023-04-08T02:23:06;29.50;;;16.95;;
51034;SDS011;37062;52.546;13.230;2023-04-08T02:25:40;26.40;;;16.42;;
51034;SDS011;37062;52.546;13.230;2023-04-08T02:28:11;29.23;;;18.45;;
51034;SDS011;37062;52.546;13.230;2023-04-08T02:30:45;29.38;;;17.90;;
51034;SDS011;37062;52.546;13.230;2023-04-08T02:33:17;34.15;;;18.67;;
51034;SDS011;37062;52.546;13.230;2023-04-08T02:35:50;28.45;;;17.42;;
51034;SDS011;37062;52.546;13.230;2023-04-08T02:38:21;28.08;;;17.60;;
51034;SDS011;37062;52.546;13.230;2023-04-08T02:40:53;30.08;;;17.60;;
51034;SDS011;37062;52.546;13.230;2023-04-08T02:43:21;25.08;;;15.93;;
51034;SDS011;37062;52.546;13.230;2023-04-08T02:45:56;28.80;;;17.23;;
51034;SDS011;37062;52.546;13.230;2023-04-08T02:48:28;29.40;;;18.50;;
51034;SDS011;37062;52.546;13.230;2023-04-08T02:50:57;32.90;;;17.60;;
51034;SDS011;37062;52.546;13.230;2023-04-08T02:53:25;29.70;;;18.25;;
51034;SDS011;37062;52.546;13.230;2023-04-08T02:55:54;31.65;;;18.58;;
51034;SDS011;37062;52.546;13.230;2023-04-08T02:58:22;27.50;;;18.25;;
51034;SDS011;37062;52.546;13.230;2023-04-08T03:00:50;30.33;;;16.65;;
51034;SDS011;37062;52.546;13.230;2023-04-08T03:03:20;28.83;;;16.48;;
51034;SDS011;37062;52.546;13.230;2023-04-08T03:05:53;29.33;;;18.20;;
51034;SDS011;37062;52.546;13.230;2023-04-08T03:08:22;28.90;;;16.92;;
51034;SDS011;37062;52.546;13.230;2023-04-08T03:10:51;31.00;;;18.05;;
51034;SDS011;37062;52.546;13.230;2023-04-08T03:13:19;26.90;;;16.65;;
51034;SDS011;37062;52.546;13.230;2023-04-08T03:15:47;29.60;;;17.98;;
51034;SDS011;37062;52.546;13.230;2023-04-08T03:18:16;30.90;;;17.50;;
51034;SDS011;37062;52.546;13.230;2023-04-08T03:20:46;29.50;;;17.92;;
51034;SDS011;37062;52.546;13.230;2023-04-08T03:23:14;33.90;;;19.35;;
51034;SDS011;37062;52.546;13.230;2023-04-08T03:25:43;30.33;;;18.08;;
51034;SDS011;37062;52.546;13.230;2023-04-08T03:28:11;27.98;;;17.58;;
51034;SDS011;37062;52.546;13.230;2023-04-08T03:30:40;31.60;;;18.35;;
51034;SDS011;37062;52.546;13.230;2023-04-08T03:33:08;37.42;;;18.67;;
51034;SDS011;37062;52.546;13.230;2023-04-08T03:35:36;29.00;;;17.35;;
51034;SDS011;37062;52.546;13.230;2023-04-08T03:38:06;32.30;;;18.48;;
51034;SDS011;37062;52.546;13.230;2023-04-08T03:40:34;36.47;;;18.45;;
51034;SDS011;37062;52.546;13.230;2023-04-08T03:43:03;28.75;;;17.58;;
51034;SDS011;37062;52.546;13.230;2023-04-08T03:45:32;28.40;;;17.90;;
51034;SDS011;37062;52.546;13.230;2023-04-08T03:48:00;33.10;;;17.85;;
51034;SDS011;37062;52.546;13.230;2023-04-08T03:50:29;39.67;;;20.02;;
51034;SDS011;37062;52.546;13.230;2023-04-08T03:52:57;33.80;;;18.60;;
51034;SDS011;37062;52.546;13.230;2023-04-08T03:55:27;32.67;;;18.02;;
51034;SDS011;37062;52.546;13.230;2023-04-08T03:57:55;33.10;;;18.48;;
51034;SDS011;37062;52.546;13.230;2023-04-08T04:00:24;31.65;;;18.27;;
51034;SDS011;37062;52.546;13.230;2023-04-08T04:02:52;33.45;;;18.20;;
51034;SDS011;37062;52.546;13.230;2023-04-08T04:05:21;39.20;;;20.38;;
51034;SDS011;37062;52.546;13.230;2023-04-08T04:07:50;31.13;;;18.20;;
51034;SDS011;37062;52.546;13.230;2023-04-08T04:10:18;33.78;;;20.05;;
51034;SDS011;37062;52.546;13.230;2023-04-08T04:12:47;28.40;;;17.52;;
51034;SDS011;37062;52.546;13.230;2023-04-08T04:15:16;28.35;;;17.35;;
51034;SDS011;37062;52.546;13.230;2023-04-08T04:17:46;30.92;;;18.55;;
51034;SDS011;37062;52.546;13.230;2023-04-08T04:20:17;31.52;;;17.88;;
51034;SDS011;37062;52.546;13.230;2023-04-08T04:22:47;33.03;;;18.40;;
51034;SDS011;37062;52.546;13.230;2023-04-08T04:25:15;33.63;;;19.40;;
51034;SDS011;37062;52.546;13.230;2023-04-08T04:27:44;31.95;;;18.52;;
51034;SDS011;37062;52.546;13.230;2023-04-08T04:30:13;31.98;;;17.02;;
51034;SDS011;37062;52.546;13.230;2023-04-08T04:32:42;32.50;;;18.58;;
51034;SDS011;37062;52.546;13.230;2023-04-08T04:35:10;33.45;;;18.27;;
51034;SDS011;37062;52.546;13.230;2023-04-08T04:37:38;34.58;;;18.60;;
51034;SDS011;37062;52.546;13.230;2023-04-08T04:40:07;31.83;;;18.67;;
51034;SDS011;37062;52.546;13.230;2023-04-08T04:42:36;34.63;;;18.85;;
51034;SDS011;37062;52.546;13.230;2023-04-08T04:45:04;33.35;;;18.20;;
51034;SDS011;37062;52.546;13.230;2023-04-08T04:47:35;30.73;;;18.00;;
51034;SDS011;37062;52.546;13.230;2023-04-08T04:50:04;32.58;;;17.38;;
51034;SDS011;37062;52.546;13.230;2023-04-08T04:52:34;32.65;;;17.35;;
51034;SDS011;37062;52.546;13.230;2023-04-08T04:55:03;33.10;;;18.42;;
51034;SDS011;37062;52.546;13.230;2023-04-08T04:57:32;31.02;;;18.45;;
51034;SDS011;37062;52.546;13.230;2023-04-08T05:00:00;38.17;;;19.40;;
51034;SDS011;37062;52.546;13.230;2023-04-08T05:02:31;34.50;;;19.23;;
51034;SDS011;37062;52.546;13.230;2023-04-08T05:05:00;30.85;;;17.70;;
51034;SDS011;37062;52.546;13.230;2023-04-08T05:07:29;30.75;;;17.42;;
51034;SDS011;37062;52.546;13.230;2023-04-08T05:09:57;29.77;;;18.02;;
51034;SDS011;37062;52.546;13.230;2023-04-08T05:12:25;32.63;;;19.20;;
51034;SDS011;37062;52.546;13.230;2023-04-08T05:14:54;34.20;;;18.60;;
51034;SDS011;37062;52.546;13.230;2023-04-08T05:17:22;35.40;;;19.20;;
51034;SDS011;37062;52.546;13.230;2023-04-08T05:19:50;29.25;;;17.95;;
51034;SDS011;37062;52.546;13.230;2023-04-08T05:22:20;33.55;;;18.15;;
51034;SDS011;37062;52.546;13.230;2023-04-08T05:24:49;31.20;;;17.58;;
51034;SDS011;37062;52.546;13.230;2023-04-08T05:27:17;31.48;;;19.15;;
51034;SDS011;37062;52.546;13.230;2023-04-08T05:29:47;31.42;;;18.27;;
51034;SDS011;37062;52.546;13.230;2023-04-08T05:32:15;33.33;;;18.95;;
51034;SDS011;37062;52.546;13.230;2023-04-08T05:34:44;31.70;;;19.40;;
51034;SDS011;37062;52.546;13.230;2023-04-08T05:37:12;31.23;;;18.88;;
51034;SDS011;37062;52.546;13.230;2023-04-08T05:39:42;30.85;;;18.77;;
51034;SDS011;37062;52.546;13.230;2023-04-08T05:42:10;28.48;;;17.23;;
51034;SDS011;37062;52.546;13.230;2023-04-08T05:44:39;33.25;;;18.83;;
51034;SDS011;37062;52.546;13.230;2023-04-08T05:47:09;33.75;;;19.30;;
51034;SDS011;37062;52.546;13.230;2023-04-08T05:49:37;35.08;;;19.85;;
51034;SDS011;37062;52.546;13.230;2023-04-08T05:52:06;31.73;;;19.25;;
51034;SDS011;37062;52.546;13.230;2023-04-08T05:54:34;31.20;;;19.60;;
51034;SDS011;37062;52.546;13.230;2023-04-08T05:57:04;32.22;;;19.13;;
51034;SDS011;37062;52.546;13.230;2023-04-08T05:59:35;33.05;;;20.10;;
51034;SDS011;37062;52.546;13.230;2023-04-08T06:02:03;29.77;;;19.40;;
51034;SDS011;37062;52.546;13.230;2023-04-08T06:04:32;33.28;;;20.48;;
51034;SDS011;37062;52.546;13.230;2023-04-08T06:07:00;34.47;;;20.25;;
51034;SDS011;37062;52.546;13.230;2023-04-08T06:09:29;30.98;;;18.77;;
51034;SDS011;37062;52.546;13.230;2023-04-08T06:12:01;38.00;;;21.35;;
51034;SDS011;37062;52.546;13.230;2023-04-08T06:14:30;35.50;;;20.45;;
51034;SDS011;37062;52.546;13.230;2023-04-08T06:16:59;32.83;;;19.95;;
51034;SDS011;37062;52.546;13.230;2023-04-08T06:19:27;33.25;;;20.67;;
51034;SDS011;37062;52.546;13.230;2023-04-08T06:21:56;33.88;;;20.00;;
51034;SDS011;37062;52.546;13.230;2023-04-08T06:24:25;36.65;;;20.27;;
51034;SDS011;37062;52.546;13.230;2023-04-08T06:26:54;32.03;;;20.95;;
51034;SDS011;37062;52.546;13.230;2023-04-08T06:29:23;36.90;;;21.38;;
51034;SDS011;37062;52.546;13.230;2023-04-08T06:31:52;33.38;;;20.20;;
51034;SDS011;37062;52.546;13.230;2023-04-08T06:34:21;31.60;;;20.02;;
51034;SDS011;37062;52.546;13.230;2023-04-08T06:36:49;34.85;;;19.40;;
51034;SDS011;37062;52.546;13.230;2023-04-08T06:39:18;35.35;;;19.92;;
51034;SDS011;37062;52.546;13.230;2023-04-08T06:41:47;34.15;;;19.45;;
51034;SDS011;37062;52.546;13.230;2023-04-08T06:44:26;34.88;;;20.98;;
51034;SDS011;37062;52.546;13.230;2023-04-08T06:46:56;36.97;;;21.13;;
51034;SDS011;37062;52.546;13.230;2023-04-08T06:49:25;28.58;;;18.90;;
51034;SDS011;37062;52.546;13.230;2023-04-08T06:51:53;35.28;;;19.40;;
51034;SDS011;37062;52.546;13.230;2023-04-08T06:54:22;32.50;;;20.10;;
51034;SDS011;37062;52.546;13.230;2023-04-08T06:56:50;34.03;;;19.65;;
51034;SDS011;37062;52.546;13.230;2023-04-08T06:59:19;34.75;;;19.77;;
51034;SDS011;37062;52.546;13.230;2023-04-08T07:01:47;32.53;;;20.75;;
51034;SDS011;37062;52.546;13.230;2023-04-08T07:04:17;36.00;;;21.50;;
51034;SDS011;37062;52.546;13.230;2023-04-08T07:06:45;34.63;;;19.98;;
51034;SDS011;37062;52.546;13.230;2023-04-08T07:09:13;35.20;;;20.80;;
51034;SDS011;37062;52.546;13.230;2023-04-08T07:11:42;37.53;;;20.90;;
51034;SDS011;37062;52.546;13.230;2023-04-08T07:14:10;40.28;;;22.10;;
51034;SDS011;37062;52.546;13.230;2023-04-08T07:16:39;30.92;;;19.45;;
51034;SDS011;37062;52.546;13.230;2023-04-08T07:19:08;35.83;;;20.17;;
51034;SDS011;37062;52.546;13.230;2023-04-08T07:21:38;36.15;;;21.50;;
51034;SDS011;37062;52.546;13.230;2023-04-08T07:24:07;35.55;;;20.88;;
51034;SDS011;37062;52.546;13.230;2023-04-08T07:26:35;34.88;;;20.50;;
51034;SDS011;37062;52.546;13.230;2023-04-08T07:29:05;32.72;;;20.90;;
51034;SDS011;37062;52.546;13.230;2023-04-08T07:31:33;33.78;;;20.40;;
51034;SDS011;37062;52.546;13.230;2023-04-08T07:34:01;39.05;;;22.98;;
51034;SDS011;37062;52.546;13.230;2023-04-08T07:36:30;35.22;;;21.10;;
51034;SDS011;37062;52.546;13.230;2023-04-08T07:38:59;33.92;;;21.25;;
51034;SDS011;37062;52.546;13.230;2023-04-08T07:41:28;32.85;;;20.23;;
51034;SDS011;37062;52.546;13.230;2023-04-08T07:43:57;37.05;;;21.25;;
51034;SDS011;37062;52.546;13.230;2023-04-08T07:46:25;36.90;;;22.45;;
51034;SDS011;37062;52.546;13.230;2023-04-08T07:48:53;35.95;;;21.60;;
51034;SDS011;37062;52.546;13.230;2023-04-08T07:51:22;33.40;;;20.77;;
51034;SDS011;37062;52.546;13.230;2023-04-08T07:53:50;35.30;;;20.90;;
51034;SDS011;37062;52.546;13.230;2023-04-08T07:56:19;31.10;;;21.05;;
51034;SDS011;37062;52.546;13.230;2023-04-08T07:58:48;33.28;;;20.77;;
51034;SDS011;37062;52.546;13.230;2023-04-08T08:01:19;35.40;;;21.17;;
51034;SDS011;37062;52.546;13.230;2023-04-08T08:03:49;34.83;;;20.58;;
51034;SDS011;37062;52.546;13.230;2023-04-08T08:06:19;36.30;;;22.88;;
51034;SDS011;37062;52.546;13.230;2023-04-08T08:08:48;34.92;;;21.77;;
51034;SDS011;37062;52.546;13.230;2023-04-08T08:11:16;34.83;;;21.88;;
51034;SDS011;37062;52.546;13.230;2023-04-08T08:13:46;31.58;;;19.73;;
51034;SDS011;37062;52.546;13.230;2023-04-08T08:16:14;32.50;;;20.25;;
51034;SDS011;37062;52.546;13.230;2023-04-08T08:18:43;31.70;;;20.60;;
51034;SDS011;37062;52.546;13.230;2023-04-08T08:21:11;36.45;;;21.67;;
51034;SDS011;37062;52.546;13.230;2023-04-08T08:23:39;37.17;;;21.45;;
51034;SDS011;37062;52.546;13.230;2023-04-08T08:26:08;35.88;;;21.85;;
51034;SDS011;37062;52.546;13.230;2023-04-08T08:28:37;35.03;;;21.60;;
51034;SDS011;37062;52.546;13.230;2023-04-08T08:31:07;32.25;;;20.05;;
51034;SDS011;37062;52.546;13.230;2023-04-08T08:33:35;33.53;;;21.40;;
51034;SDS011;37062;52.546;13.230;2023-04-08T08:36:04;35.35;;;21.02;;
51034;SDS011;37062;52.546;13.230;2023-04-08T08:38:33;34.67;;;20.60;;
51034;SDS011;37062;52.546;13.230;2023-04-08T08:41:01;32.50;;;20.83;;
51034;SDS011;37062;52.546;13.230;2023-04-08T08:43:30;34.00;;;21.55;;
51034;SDS011;37062;52.546;13.230;2023-04-08T08:46:00;35.90;;;21.60;;
51034;SDS011;37062;52.546;13.230;2023-04-08T08:48:31;37.55;;;22.98;;
51034;SDS011;37062;52.546;13.230;2023-04-08T08:51:03;35.47;;;22.38;;
51034;SDS011;37062;52.546;13.230;2023-04-08T08:53:36;33.90;;;20.92;;
51034;SDS011;37062;52.546;13.230;2023-04-08T08:56:05;36.80;;;21.92;;
51034;SDS011;37062;52.546;13.230;2023-04-08T08:58:44;33.85;;;20.38;;
51034;SDS011;37062;52.546;13.230;2023-04-08T09:01:29;33.58;;;20.83;;
51034;SDS011;37062;52.546;13.230;2023-04-08T09:04:07;37.28;;;22.08;;
51034;SDS011;37062;52.546;13.230;2023-04-08T09:06:37;32.60;;;20.25;;
51034;SDS011;37062;52.546;13.230;2023-04-08T09:09:05;36.10;;;20.73;;
51034;SDS011;37062;52.546;13.230;2023-04-08T09:11:37;33.70;;;21.60;;
51034;SDS011;37062;52.546;13.230;2023-04-08T09:14:16;35.13;;;21.52;;
51034;SDS011;37062;52.546;13.230;2023-04-08T09:16:45;35.38;;;20.50;;
51034;SDS011;37062;52.546;13.230;2023-04-08T09:19:15;32.88;;;20.13;;
51034;SDS011;37062;52.546;13.230;2023-04-08T09:21:44;35.08;;;20.92;;
51034;SDS011;37062;52.546;13.230;2023-04-08T09:24:26;34.30;;;20.77;;
51034;SDS011;37062;52.546;13.230;2023-04-08T09:26:55;36.65;;;21.05;;
51034;SDS011;37062;52.546;13.230;2023-04-08T09:29:24;39.28;;;21.23;;
51034;SDS011;37062;52.546;13.230;2023-04-08T09:32:00;34.88;;;21.23;;
51034;SDS011;37062;52.546;13.230;2023-04-08T09:34:30;35.50;;;21.20;;
51034;SDS011;37062;52.546;13.230;2023-04-08T09:36:59;35.00;;;20.15;;
51034;SDS011;37062;52.546;13.230;2023-04-08T09:39:28;37.25;;;22.35;;
51034;SDS011;37062;52.546;13.230;2023-04-08T09:41:57;34.72;;;20.48;;
51034;SDS011;37062;52.546;13.230;2023-04-08T09:44:30;33.47;;;20.75;;
51034;SDS011;37062;52.546;13.230;2023-04-08T09:47:04;34.88;;;21.92;;
51034;SDS011;37062;52.546;13.230;2023-04-08T09:49:42;32.58;;;21.02;;
51034;SDS011;37062;52.546;13.230;2023-04-08T09:52:21;35.17;;;21.40;;
51034;SDS011;37062;52.546;13.230;2023-04-08T09:54:58;31.55;;;19.35;;
51034;SDS011;37062;52.546;13.230;2023-04-08T09:57:30;33.75;;;20.77;;
51034;SDS011;37062;52.546;13.230;2023-04-08T10:00:07;35.65;;;21.08;;
51034;SDS011;37062;52.546;13.230;2023-04-08T10:02:43;31.63;;;20.85;;
51034;SDS011;37062;52.546;13.230;2023-04-08T10:05:23;32.38;;;20.35;;
51034;SDS011;37062;52.546;13.230;2023-04-08T10:07:52;29.90;;;19.95;;
51034;SDS011;37062;52.546;13.230;2023-04-08T10:10:24;28.95;;;19.92;;
51034;SDS011;37062;52.546;13.230;2023-04-08T10:12:53;27.75;;;18.63;;
51034;SDS011;37062;52.546;13.230;2023-04-08T10:15:23;32.28;;;20.85;;
51034;SDS011;37062;52.546;13.230;2023-04-08T10:17:52;30.13;;;19.98;;
51034;SDS011;37062;52.546;13.230;2023-04-08T10:20:42;30.05;;;20.00;;
51034;SDS011;37062;52.546;13.230;2023-04-08T10:23:12;31.15;;;19.80;;
51034;SDS011;37062;52.546;13.230;2023-04-08T10:25:42;28.83;;;18.85;;
51034;SDS011;37062;52.546;13.230;2023-04-08T10:28:23;31.00;;;20.27;;
51034;SDS011;37062;52.546;13.230;2023-04-08T10:30:52;32.70;;;19.92;;
51034;SDS011;37062;52.546;13.230;2023-04-08T10:33:22;31.20;;;19.40;;
51034;SDS011;37062;52.546;13.230;2023-04-08T10:36:00;33.17;;;20.35;;
51034;SDS011;37062;52.546;13.230;2023-04-08T10:38:37;30.88;;;20.17;;
51034;SDS011;37062;52.546;13.230;2023-04-08T10:41:05;33.95;;;21.23;;
51034;SDS011;37062;52.546;13.230;2023-04-08T10:43:34;31.73;;;19.75;;
51034;SDS011;37062;52.546;13.230;2023-04-08T10:46:03;30.33;;;20.05;;
51034;SDS011;37062;52.546;13.230;2023-04-08T10:48:32;28.95;;;19.20;;
51034;SDS011;37062;52.546;13.230;2023-04-08T10:51:02;30.02;;;19.05;;
51034;SDS011;37062;52.546;13.230;2023-04-08T10:53:32;28.15;;;19.08;;
51034;SDS011;37062;52.546;13.230;2023-04-08T10:56:05;30.83;;;19.92;;
51034;SDS011;37062;52.546;13.230;2023-04-08T10:58:34;27.50;;;17.88;;
51034;SDS011;37062;52.546;13.230;2023-04-08T11:01:03;26.40;;;17.88;;
51034;SDS011;37062;52.546;13.230;2023-04-08T11:03:34;27.08;;;18.67;;
51034;SDS011;37062;52.546;13.230;2023-04-08T11:06:04;30.27;;;18.92;;
51034;SDS011;37062;52.546;13.230;2023-04-08T11:08:33;25.38;;;16.90;;
51034;SDS011;37062;52.546;13.230;2023-04-08T11:11:03;24.73;;;17.65;;
51034;SDS011;37062;52.546;13.230;2023-04-08T11:13:34;26.33;;;17.48;;
51034;SDS011;37062;52.546;13.230;2023-04-08T11:16:03;24.35;;;17.52;;
51034;SDS011;37062;52.546;13.230;2023-04-08T11:18:43;22.77;;;15.63;;
51034;SDS011;37062;52.546;13.230;2023-04-08T11:21:14;22.38;;;15.70;;
51034;SDS011;37062;52.546;13.230;2023-04-08T11:23:43;21.88;;;16.10;;
51034;SDS011;37062;52.546;13.230;2023-04-08T11:26:12;19.25;;;14.30;;
51034;SDS011;37062;52.546;13.230;2023-04-08T11:28:41;20.65;;;15.02;;
51034;SDS011;37062;52.546;13.230;2023-04-08T11:31:11;21.80;;;15.55;;
51034;SDS011;37062;52.546;13.230;2023-04-08T11:33:43;21.38;;;15.50;;
51034;SDS011;37062;52.546;13.230;2023-04-08T11:36:16;20.73;;;14.43;;
51034;SDS011;37062;52.546;13.230;2023-04-08T11:38:45;20.50;;;15.00;;
51034;SDS011;37062;52.546;13.230;2023-04-08T11:41:13;17.80;;;14.70;;
51034;SDS011;37062;52.546;13.230;2023-04-08T11:43:53;19.90;;;14.95;;
51034;SDS011;37062;52.546;13.230;2023-04-08T11:46:22;16.92;;;13.25;;
51034;SDS011;37062;52.546;13.230;2023-04-08T11:48:58;19.13;;;13.32;;
51034;SDS011;37062;52.546;13.230;2023-04-08T11:51:29;18.30;;;13.65;;
51034;SDS011;37062;52.546;13.230;2023-04-08T11:53:59;19.98;;;13.73;;
51034;SDS011;37062;52.546;13.230;2023-04-08T11:56:30;22.08;;;13.93;;
51034;SDS011;37062;52.546;13.230;2023-04-08T11:59:12;18.95;;;14.25;;
51034;SDS011;37062;52.546;13.230;2023-04-08T12:01:41;19.52;;;13.63;;
51034;SDS011;37062;52.546;13.230;2023-04-08T12:04:10;19.88;;;13.93;;
51034;SDS011;37062;52.546;13.230;2023-04-08T12:06:40;19.70;;;14.25;;
51034;SDS011;37062;52.546;13.230;2023-04-08T12:09:12;19.92;;;14.15;;
51034;SDS011;37062;52.546;13.230;2023-04-08T12:11:41;18.70;;;14.75;;
51034;SDS011;37062;52.546;13.230;2023-04-08T12:14:09;19.85;;;14.45;;
51034;SDS011;37062;52.546;13.230;2023-04-08T12:16:38;19.15;;;14.48;;
51034;SDS011;37062;52.546;13.230;2023-04-08T12:19:07;19.35;;;14.27;;
51034;SDS011;37062;52.546;13.230;2023-04-08T12:21:40;20.77;;;14.93;;
51034;SDS011;37062;52.546;13.230;2023-04-08T12:24:08;18.73;;;14.95;;
51034;SDS011;37062;52.546;13.230;2023-04-08T12:26:37;19.80;;;14.43;;
51034;SDS011;37062;52.546;13.230;2023-04-08T12:29:06;18.73;;;13.77;;
51034;SDS011;37062;52.546;13.230;2023-04-08T12:31:37;17.67;;;13.57;;
51034;SDS011;37062;52.546;13.230;2023-04-08T12:34:06;18.05;;;13.15;;
51034;SDS011;37062;52.546;13.230;2023-04-08T12:36:34;17.63;;;12.90;;
51034;SDS011;37062;52.546;13.230;2023-04-08T12:39:06;15.65;;;12.73;;
51034;SDS011;37062;52.546;13.230;2023-04-08T12:41:35;15.88;;;12.60;;
51034;SDS011;37062;52.546;13.230;2023-04-08T12:44:03;17.05;;;13.63;;
51034;SDS011;37062;52.546;13.230;2023-04-08T12:46:32;17.85;;;12.88;;
51034;SDS011;37062;52.546;13.230;2023-04-08T12:49:02;16.00;;;12.10;;
51034;SDS011;37062;52.546;13.230;2023-04-08T12:51:31;15.48;;;12.38;;
51034;SDS011;37062;52.546;13.230;2023-04-08T12:54:00;14.52;;;12.27;;
51034;SDS011;37062;52.546;13.230;2023-04-08T12:56:30;17.13;;;14.02;;
51034;SDS011;37062;52.546;13.230;2023-04-08T12:58:59;17.15;;;13.00;;
51034;SDS011;37062;52.546;13.230;2023-04-08T13:01:28;19.02;;;14.18;;
51034;SDS011;37062;52.546;13.230;2023-04-08T13:03:57;16.10;;;13.18;;
51034;SDS011;37062;52.546;13.230;2023-04-08T13:06:25;19.10;;;13.73;;
51034;SDS011;37062;52.546;13.230;2023-04-08T13:08:54;22.38;;;15.75;;
51034;SDS011;37062;52.546;13.230;2023-04-08T13:11:22;20.00;;;14.35;;
51034;SDS011;37062;52.546;13.230;2023-04-08T13:13:53;17.42;;;13.93;;
51034;SDS011;37062;52.546;13.230;2023-04-08T13:16:21;17.02;;;13.23;;
51034;SDS011;37062;52.546;13.230;2023-04-08T13:18:50;18.05;;;13.82;;
51034;SDS011;37062;52.546;13.230;2023-04-08T13:21:19;19.25;;;13.60;;
51034;SDS011;37062;52.546;13.230;2023-04-08T13:23:47;14.73;;;12.52;;
51034;SDS011;37062;52.546;13.230;2023-04-08T13:26:15;16.60;;;12.45;;
51034;SDS011;37062;52.546;13.230;2023-04-08T13:28:44;15.23;;;12.00;;
51034;SDS011;37062;52.546;13.230;2023-04-08T13:31:24;17.88;;;13.20;;
51034;SDS011;37062;52.546;13.230;2023-04-08T13:33:53;14.80;;;11.85;;
51034;SDS011;37062;52.546;13.230;2023-04-08T13:36:23;17.20;;;13.55;;
51034;SDS011;37062;52.546;13.230;2023-04-08T13:38:54;15.32;;;12.30;;
51034;SDS011;37062;52.546;13.230;2023-04-08T13:41:23;15.20;;;12.82;;
51034;SDS011;37062;52.546;13.230;2023-04-08T13:43:57;12.38;;;10.73;;
51034;SDS011;37062;52.546;13.230;2023-04-08T13:46:27;12.25;;;9.98;;
51034;SDS011;37062;52.546;13.230;2023-04-08T13:48:56;12.20;;;9.82;;
51034;SDS011;37062;52.546;13.230;2023-04-08T13:51:24;11.80;;;9.48;;
51034;SDS011;37062;52.546;13.230;2023-04-08T13:53:52;12.68;;;10.32;;
51034;SDS011;37062;52.546;13.230;2023-04-08T13:56:21;12.10;;;10.80;;
51034;SDS011;37062;52.546;13.230;2023-04-08T13:58:49;12.57;;;10.57;;
51034;SDS011;37062;52.546;13.230;2023-04-08T14:01:23;13.07;;;11.15;;
51034;SDS011;37062;52.546;13.230;2023-04-08T14:03:53;13.07;;;11.10;;
51034;SDS011;37062;52.546;13.230;2023-04-08T14:06:21;15.00;;;12.27;;
51034;SDS011;37062;52.546;13.230;2023-04-08T14:08:50;14.05;;;11.98;;
51034;SDS011;37062;52.546;13.230;2023-04-08T14:11:19;15.23;;;12.00;;
51034;SDS011;37062;52.546;13.230;2023-04-08T14:13:47;13.82;;;11.57;;
51034;SDS011;37062;52.546;13.230;2023-04-08T14:16:16;12.88;;;11.48;;
51034;SDS011;37062;52.546;13.230;2023-04-08T14:18:45;12.77;;;10.30;;
51034;SDS011;37062;52.546;13.230;2023-04-08T14:21:15;13.75;;;11.57;;
51034;SDS011;37062;52.546;13.230;2023-04-08T14:23:44;13.80;;;11.88;;